Time;durP1;ratioP1;P1;durP2;ratioP2;P2;SDS_P1;SDS_P2;PMS_P1;PMS_P2;Temp;Humidity;BMP_temperature;BMP_pressure;BME280_temperature;BME280_humidity;BME280_pressure;Samples;Min_cycle;Max_cycle;Signal;HPM_P1;HPM_P2
2022/12/16 00:01:33;;;;;;;6.10;2.63;;;8.40;99.90;;;;;;5072935;28;20048;-69
2022/12/16 00:03:59;;;;;;;3.33;2.77;;;8.40;99.90;;;;;;5073806;28;20542;-69
2022/12/16 00:06:30;;;;;;;5.47;3.13;;;8.50;99.90;;;;;;5073083;28;20025;-69
2022/12/16 00:08:56;;;;;;;5.50;3.03;;;8.50;99.90;;;;;;5074104;28;20379;-69
2022/12/16 00:11:21;;;;;;;4.47;2.90;;;8.40;99.90;;;;;;5072464;28;20024;-69
2022/12/16 00:13:47;;;;;;;2.97;2.30;;;8.50;99.90;;;;;;5073796;28;20028;-69
2022/12/16 00:16:14;;;;;;;3.57;2.37;;;;;;;;;;5073922;28;20031;-69
2022/12/16 00:18:40;;;;;;;4.20;2.47;;;;;;;;;;5073833;28;20028;-69
2022/12/16 00:21:07;;;;;;;3.67;2.50;;;;;;;;;;5073826;28;20025;-69
2022/12/16 00:23:33;;;;;;;2.60;2.03;;;;;;;;;;5073719;28;20466;-69
2022/12/16 00:26:00;;;;;;;3.10;1.93;;;;;;;;;;5073721;28;20052;-69
2022/12/16 00:28:26;;;;;;;2.93;1.67;;;;;;;;;;5073584;28;20067;-69
2022/12/16 00:30:53;;;;;;;2.77;1.53;;;;;;;;;;5072985;28;20032;-69
2022/12/16 00:33:20;;;;;;;2.07;1.30;;;;;;;;;;5073182;28;20055;-69
2022/12/16 00:35:47;;;;;;;1.70;1.50;;;;;;;;;;5073369;28;20036;-69
2022/12/16 00:38:14;;;;;;;2.70;1.73;;;;;;;;;;5073332;28;20437;-69
2022/12/16 00:40:40;;;;;;;4.00;1.80;;;;;;;;;;5073045;28;20024;-68
2022/12/16 00:43:06;;;;;;;1.97;1.30;;;;;;;;;;5073285;28;20051;-69
2022/12/16 00:45:32;;;;;;;4.73;1.30;;;;;;;;;;5073184;28;20359;-69
2022/12/16 00:47:58;;;;;;;1.50;0.90;;;;;;;;;;5073496;28;20017;-69
2022/12/16 00:50:24;;;;;;;1.50;0.80;;;;;;;;;;5073011;28;20108;-69
2022/12/16 00:52:50;;;;;;;1.80;0.90;;;;;;;;;;5072931;28;20393;-69
2022/12/16 00:55:17;;;;;;;2.40;1.00;;;;;;;;;;5073272;28;20376;-69
2022/12/16 00:57:43;;;;;;;1.17;0.80;;;;;;;;;;5073204;28;20124;-69
2022/12/16 01:00:13;;;;;;;2.10;1.20;;;;;;;;;;5073586;28;20052;-69
2022/12/16 01:02:40;;;;;;;2.27;1.00;;;;;;;;;;5073121;28;20033;-69
2022/12/16 01:05:06;;;;;;;1.13;0.90;;;;;;;;;;5073136;28;20029;-70
2022/12/16 01:07:33;;;;;;;1.70;1.03;;;;;;;;;;5072981;28;20016;-69
2022/12/16 01:09:59;;;;;;;3.93;1.10;;;;;;;;;;5073007;28;20036;-69
2022/12/16 01:12:25;;;;;;;4.13;1.13;;;;;;;;;;5073117;28;20060;-68
2022/12/16 01:14:51;;;;;;;3.27;1.50;;;;;;;;;;5071790;28;20024;-69
2022/12/16 01:17:17;;;;;;;2.83;1.10;;;;;;;;;;5073132;28;20029;-69
2022/12/16 01:19:43;;;;;;;2.93;1.40;;;;;;;;;;5072753;28;20031;-69
2022/12/16 01:22:09;;;;;;;5.70;1.27;;;;;;;;;;5073156;28;20427;-69
2022/12/16 01:24:35;;;;;;;2.23;1.20;;;;;;;;;;5072964;28;20063;-69
2022/12/16 01:27:01;;;;;;;2.00;1.10;;;;;;;;;;5072948;28;20020;-68
2022/12/16 01:29:27;;;;;;;2.90;1.23;;;;;;;;;;5072844;28;20029;-69
2022/12/16 01:31:53;;;;;;;2.37;1.20;;;;;;;;;;5072540;28;20055;-69
2022/12/16 01:34:19;;;;;;;1.47;0.90;;;;;;;;;;5072587;28;20025;-69
2022/12/16 01:36:45;;;;;;;1.33;0.87;;;;;;;;;;5072726;28;20507;-69
2022/12/16 01:39:11;;;;;;;5.40;0.87;;;;;;;;;;5072841;28;20024;-69
2022/12/16 01:41:38;;;;;;;1.97;1.07;;;;;;;;;;5072952;28;20108;-69
2022/12/16 01:44:14;;;;;;;1.27;0.73;;;;;;;;;;5072797;28;20120;-69
2022/12/16 01:46:40;;;;;;;2.23;0.80;;;;;;;;;;5072511;28;20024;-69
2022/12/16 01:49:11;;;;;;;2.10;0.73;;;;;;;;;;5072632;28;20017;-69
2022/12/16 01:51:42;;;;;;;4.37;1.00;;;;;;;;;;5072579;28;20021;-69
2022/12/16 01:54:10;;;;;;;2.70;0.90;;;;;;;;;;5072759;28;20060;-69
2022/12/16 01:56:40;;;;;;;2.77;0.83;;;;;;;;;;5072689;28;20021;-69
2022/12/16 01:59:07;;;;;;;1.70;0.93;;;;;;;;;;5069809;28;20070;-69
2022/12/16 02:01:33;;;;;;;1.90;1.00;;;;;;;;;;5069719;28;20029;-70
2022/12/16 02:04:01;;;;;;;2.17;0.90;;;;;;;;;;5070099;28;20028;-69
2022/12/16 02:06:27;;;;;;;1.03;0.83;;;;;;;;;;5072244;28;20028;-68
2022/12/16 02:08:56;;;;;;;2.13;0.80;;;;;;;;;;5072513;28;20021;-69
2022/12/16 02:11:40;;;;;;;0.97;0.80;;;;;;;;;;5072339;28;20477;-68
2022/12/16 02:14:15;;;;;;;1.60;0.90;;;8.50;99.90;;;;;;5071903;28;20029;-69
2022/12/16 02:16:50;;;;;;;4.73;0.70;;;;;;;;;;5072284;28;20108;-69
2022/12/16 02:19:35;;;;;;;1.47;0.70;;;;;;;;;;5072514;28;20063;-69
2022/12/16 02:22:20;;;;;;;1.23;0.80;;;;;;;;;;5072459;28;20459;-69
2022/12/16 02:24:49;;;;;;;2.67;0.80;;;;;;;;;;5072411;28;20059;-69
2022/12/16 02:27:18;;;;;;;2.27;1.10;;;;;;;;;;5072351;28;20036;-68
2022/12/16 02:29:44;;;;;;;1.43;1.03;;;;;;;;;;5074059;28;20078;-69
2022/12/16 02:32:17;;;;;;;1.13;0.90;;;;;;;;;;5075604;28;20049;-69
2022/12/16 02:35:05;;;;;;;1.63;1.20;;;;;;;;;;5075994;28;20442;-69
2022/12/16 02:37:52;;;;;;;3.77;1.40;;;;;;;;;;5055350;28;20029;-69
2022/12/16 02:40:28;;;;;;;1.13;0.90;;;;;;;;;;5055651;28;20096;-68
2022/12/16 02:42:57;;;;;;;5.23;1.37;;;;;;;;;;5055631;28;20025;-69
2022/12/16 02:45:26;;;;;;;4.93;1.50;;;;;;;;;;5055727;28;20021;-69
2022/12/16 02:47:52;;;;;;;1.33;1.00;;;;;;;;;;5056042;28;20021;-69
2022/12/16 02:50:38;;;;;;;2.17;1.03;;;;;;;;;;5055602;28;20029;-69
2022/12/16 02:53:05;;;;;;;3.73;1.03;;;;;;;;;;5055083;28;20107;-69
2022/12/16 02:55:55;;;;;;;3.87;1.20;;;;;;;;;;5055372;28;20025;-69
2022/12/16 02:58:32;;;;;;;1.40;1.30;;;;;;;;;;5052663;28;20391;-69
2022/12/16 03:00:57;;;;;;;3.47;1.50;;;;;;;;;;5055440;28;20025;-69
2022/12/16 03:03:29;;;;;;;3.00;1.37;;;;;;;;;;5055134;28;20372;-69
2022/12/16 03:05:56;;;;;;;3.07;1.80;;;;;;;;;;5055244;28;20036;-68
2022/12/16 03:08:28;;;;;;;2.60;1.40;;;;;;;;;;5055210;28;20056;-69
2022/12/16 03:10:57;;;;;;;5.22;1.75;;;;;;;;;;5055147;28;20060;-69
2022/12/16 03:13:23;;;;;;;3.97;2.10;;;;;;;;;;5055113;28;20039;-69
2022/12/16 03:15:50;;;;;;;4.87;2.43;;;;;;;;;;5055111;28;20035;-69
2022/12/16 03:18:16;;;;;;;4.07;2.17;;;;;;;;;;5055216;28;20038;-69
2022/12/16 03:20:46;;;;;;;4.63;1.93;;;;;;;;;;5055023;28;20067;-69
2022/12/16 03:23:15;;;;;;;3.87;2.30;;;;;;;;;;5055108;28;20028;-69
2022/12/16 03:25:43;;;;;;;4.70;2.70;;;;;;;;;;5055050;28;20108;-69
2022/12/16 03:28:12;;;;;;;3.50;2.13;;;;;;;;;;5054736;28;20114;-70
2022/12/16 03:30:45;;;;;;;10.67;2.10;;;;;;;;;;5054599;28;20033;-69
2022/12/16 03:33:31;;;;;;;5.60;1.95;;;;;;;;;;5054535;28;20354;-69
2022/12/16 03:36:00;;;;;;;9.43;3.03;;;;;;;;;;5054918;28;20024;-69
2022/12/16 03:38:26;;;;;;;6.30;1.90;;;;;;;;;;5054350;28;20029;-69
2022/12/16 03:40:52;;;;;;;9.70;2.60;;;;;;;;;;5054495;28;20053;-69
2022/12/16 03:43:19;;;;;;;6.93;2.73;;;;;;;;;;5054430;28;20064;-69
2022/12/16 03:45:45;;;;;;;7.20;2.10;;;;;;;;;;5054412;28;20021;-69
2022/12/16 03:48:12;;;;;;;4.57;2.30;;;;;;;;;;5054505;28;20467;-69
2022/12/16 03:50:39;;;;;;;9.63;2.20;;;;;;;;;;5054551;28;20021;-69
2022/12/16 03:53:05;;;;;;;9.27;2.20;;;;;;;;;;5054384;28;20120;-69
2022/12/16 03:55:32;;;;;;;5.77;2.73;;;;;;;;;;5054393;28;20415;-69
2022/12/16 03:57:58;;;;;;;8.10;2.40;;;;;;;;;;5054031;28;20487;-68
2022/12/16 04:00:24;;;;;;;9.40;2.67;;;;;;;;;;5053984;28;20021;-69
2022/12/16 04:02:51;;;;;;;5.53;2.57;;;;;;;;;;5054238;28;20065;-69
2022/12/16 04:05:17;;;;;;;6.17;2.87;;;;;;;;;;5053901;28;20429;-69
2022/12/16 04:07:43;;;;;;;6.07;2.80;;;;;;;;;;5054003;28;20432;-69
2022/12/16 04:10:09;;;;;;;7.87;3.10;;;;;;;;;;5053688;28;20107;-69
2022/12/16 04:27:23;;;;;;;8.43;3.97;;;;;;;;;;5054031;28;20040;-68
2022/12/16 04:29:17;;;;;;;11.60;4.17;;;;;;;;;;5053466;28;20037;-69
2022/12/16 04:31:43;;;;;;;9.90;4.80;;;;;;;;;;5053413;28;20033;-69
2022/12/16 04:34:24;;;;;;;6.57;5.17;;;;;;;;;;5053518;28;20106;-70
